createdAt,value
2023-02-14T00:00:10.717Z,80.25
2023-02-14T00:02:38.790Z,77.22
2023-02-14T00:05:07.253Z,79.85
2023-02-14T00:07:36.443Z,80.05
2023-02-14T00:10:04.345Z,82.22
2023-02-14T00:12:32.201Z,82.43
2023-02-14T00:15:31.876Z,77.70
2023-02-14T00:18:00.513Z,80.03
2023-02-14T00:20:29.151Z,85.65
2023-02-14T00:22:59.828Z,82.03
2023-02-14T00:25:27.702Z,82.90
2023-02-14T00:27:55.687Z,84.78
2023-02-14T00:30:23.883Z,86.28
2023-02-14T00:32:51.730Z,83.72
2023-02-14T00:35:19.867Z,83.55
2023-02-14T00:37:47.889Z,83.40
2023-02-14T00:40:17.242Z,81.88
2023-02-14T00:42:45.098Z,77.30
2023-02-14T00:45:12.979Z,83.13
2023-02-14T00:47:40.995Z,81.13
2023-02-14T00:50:09.746Z,80.22
2023-02-14T00:52:37.602Z,81.35
2023-02-14T00:55:05.778Z,81.75
2023-02-14T00:57:35.179Z,77.80
2023-02-14T01:00:07.155Z,71.65
2023-02-14T01:02:35.082Z,77.28
2023-02-14T01:05:03.112Z,77.30
2023-02-14T01:07:30.966Z,78.38
2023-02-14T01:09:58.852Z,68.70
2023-02-14T01:12:26.750Z,78.57
2023-02-14T01:14:56.694Z,77.40
2023-02-14T01:17:24.534Z,76.95
2023-02-14T01:19:53.165Z,78.32
2023-02-14T01:22:21.164Z,76.05
2023-02-14T01:24:49.210Z,75.07
2023-02-14T01:27:17.103Z,76.80
2023-02-14T01:29:44.980Z,78.75
2023-02-14T01:32:14.406Z,78.28
2023-02-14T01:34:42.425Z,79.60
2023-02-14T01:37:10.341Z,78.55
2023-02-14T01:39:38.227Z,78.90
2023-02-14T01:42:06.662Z,74.07
2023-02-14T01:44:56.624Z,78.38
2023-02-14T01:47:28.159Z,67.13
2023-02-14T01:50:00.478Z,74.40
2023-02-14T01:52:31.849Z,75.72
2023-02-14T01:55:05.780Z,78.93
2023-02-14T01:57:37.865Z,78.32
2023-02-14T02:00:25.297Z,74.82
2023-02-14T02:02:54.872Z,77.18
2023-02-14T02:05:23.835Z,76.45
2023-02-14T02:07:52.453Z,76.38
2023-02-14T02:10:21.417Z,76.90
2023-02-14T02:12:52.594Z,75.13
2023-02-14T02:15:20.860Z,76.07
2023-02-14T02:17:57.332Z,77.40
2023-02-14T02:20:54.910Z,76.75
2023-02-14T02:23:50.218Z,71.35
2023-02-14T02:27:02.855Z,72.75
2023-02-14T02:30:05.386Z,72.40
2023-02-14T02:32:59.954Z,73.78
2023-02-14T02:35:45.081Z,72.93
2023-02-14T02:38:22.496Z,72.55
2023-02-14T02:40:57.870Z,71.90
2023-02-14T02:43:38.107Z,74.65
2023-02-14T02:46:26.270Z,74.15
2023-02-14T02:48:58.221Z,69.18
2023-02-14T02:51:50.890Z,73.13
2023-02-14T02:54:21.798Z,70.40
2023-02-14T02:56:53.481Z,73.00
2023-02-14T02:59:24.355Z,69.65
2023-02-14T03:01:58.590Z,74.07
2023-02-14T03:04:44.941Z,70.57
2023-02-14T03:07:32.018Z,73.20
2023-02-14T03:10:01.415Z,71.60
2023-02-14T03:13:21.398Z,76.10
2023-02-14T03:15:55.559Z,71.28
2023-02-14T03:18:41.178Z,70.63
2023-02-14T03:21:18.522Z,67.82
2023-02-14T03:23:55.642Z,71.75
2023-02-14T03:26:28.449Z,67.63
2023-02-14T03:29:01.278Z,75.95
2023-02-14T03:31:32.987Z,77.10
2023-02-14T03:34:10.355Z,75.97
2023-02-14T03:36:42.263Z,77.25
2023-02-14T03:39:15.331Z,76.07
2023-02-14T03:41:47.602Z,76.13
2023-02-14T03:44:19.597Z,75.60
2023-02-14T03:46:51.196Z,75.43
2023-02-14T03:49:21.251Z,73.45
2023-02-14T03:51:50.417Z,67.00
2023-02-14T03:54:21.917Z,76.03
2023-02-14T03:56:51.629Z,74.88
2023-02-14T03:59:22.042Z,76.35
2023-02-14T04:01:55.936Z,75.68
2023-02-14T04:04:26.350Z,76.03
2023-02-14T04:06:54.214Z,75.68
2023-02-14T04:09:23.388Z,76.10
2023-02-14T04:11:51.386Z,75.55
2023-02-14T04:14:19.265Z,73.78
2023-02-14T04:17:04.659Z,75.05
2023-02-14T04:19:32.547Z,73.50
2023-02-14T04:22:00.466Z,72.00
2023-02-14T04:24:29.847Z,75.50
2023-02-14T04:27:11.096Z,73.45
2023-02-14T04:29:39.830Z,74.55
2023-02-14T04:32:08.878Z,74.35
2023-02-14T04:34:37.474Z,71.47
2023-02-14T04:37:05.489Z,71.45
2023-02-14T04:39:35.452Z,75.68
2023-02-14T04:42:03.580Z,76.93
2023-02-14T04:44:33.937Z,77.90
2023-02-14T04:47:02.406Z,76.82
2023-02-14T04:49:30.355Z,77.80
2023-02-14T04:51:58.415Z,77.30
2023-02-14T04:54:26.624Z,77.32
2023-02-14T04:56:55.832Z,76.80
2023-02-14T04:59:25.060Z,77.47
2023-02-14T05:01:53.289Z,77.20
2023-02-14T05:04:21.258Z,78.55
2023-02-14T05:06:49.267Z,76.90
2023-02-14T05:09:17.156Z,75.63
2023-02-14T05:11:44.961Z,77.47
2023-02-14T05:14:14.883Z,75.90
2023-02-14T05:16:42.850Z,75.05
2023-02-14T05:19:10.798Z,75.78
2023-02-14T05:21:38.657Z,76.10
2023-02-14T05:24:06.970Z,78.05
2023-02-14T05:26:34.801Z,76.05
2023-02-14T05:29:02.772Z,75.68
2023-02-14T05:31:32.132Z,72.85
2023-02-14T05:34:00.088Z,77.15
2023-02-14T05:36:27.992Z,77.72
2023-02-14T05:38:55.869Z,72.38
2023-02-14T05:41:23.758Z,78.20
2023-02-14T05:43:51.695Z,77.25
2023-02-14T05:46:19.655Z,80.85
2023-02-14T05:48:48.996Z,77.85
2023-02-14T05:51:16.842Z,79.25
2023-02-14T05:53:44.718Z,77.72
2023-02-14T05:56:12.671Z,80.25
2023-02-14T05:58:40.548Z,78.40
2023-02-14T06:01:08.409Z,80.55
2023-02-14T06:03:36.288Z,81.13
2023-02-14T06:06:05.862Z,78.63
2023-02-14T06:08:33.769Z,81.78
2023-02-14T06:11:01.862Z,79.88
2023-02-14T06:13:29.807Z,81.45
2023-02-14T06:15:57.700Z,83.05
2023-02-14T06:18:27.986Z,81.15
2023-02-14T06:20:56.248Z,82.05
2023-02-14T06:23:26.055Z,81.20
2023-02-14T06:25:53.931Z,83.20
2023-02-14T06:28:21.814Z,82.82
2023-02-14T06:30:49.769Z,83.18
2023-02-14T06:33:17.777Z,78.30
2023-02-14T06:35:45.603Z,82.63
2023-02-14T06:38:13.461Z,81.60
2023-02-14T06:40:42.642Z,82.57
2023-02-14T06:43:10.452Z,81.25
2023-02-14T06:45:38.272Z,81.45
2023-02-14T06:48:07.487Z,84.70
2023-02-14T06:50:37.049Z,79.85
2023-02-14T06:53:06.155Z,81.05
2023-02-14T06:55:34.063Z,81.35
2023-02-14T06:58:03.280Z,80.25
2023-02-14T07:00:34.179Z,79.38
2023-02-14T07:03:02.151Z,79.95
2023-02-14T07:05:30.061Z,79.03
2023-02-14T07:07:57.881Z,81.13
2023-02-14T07:10:25.826Z,78.55
2023-02-14T07:12:53.834Z,75.82
2023-02-14T07:15:23.176Z,82.20
2023-02-14T07:17:51.127Z,79.10
2023-02-14T07:20:19.462Z,76.95
2023-02-14T07:22:47.515Z,76.07
2023-02-14T07:25:15.582Z,70.43
2023-02-14T07:27:43.595Z,78.80
2023-02-14T07:30:12.550Z,78.05
2023-02-14T07:32:42.353Z,79.03
2023-02-14T07:35:10.623Z,78.50
2023-02-14T07:37:38.618Z,79.35
2023-02-14T07:40:14.308Z,79.45
2023-02-14T07:42:43.273Z,78.07
2023-02-14T07:45:27.119Z,79.75
2023-02-14T07:47:58.994Z,79.05
2023-02-14T07:50:26.867Z,76.70
2023-02-14T07:52:54.684Z,79.57
2023-02-14T07:55:25.027Z,80.75
2023-02-14T07:57:53.926Z,77.90
2023-02-14T08:00:22.778Z,77.88
2023-02-14T08:02:50.644Z,79.20
2023-02-14T08:05:20.153Z,77.38
2023-02-14T08:07:48.069Z,78.10
2023-02-14T08:10:16.116Z,80.93
2023-02-14T08:13:02.194Z,77.82
2023-02-14T08:15:49.391Z,78.25
2023-02-14T08:18:18.624Z,80.55
2023-02-14T08:20:49.854Z,79.80
2023-02-14T08:23:18.398Z,78.65
2023-02-14T08:25:46.718Z,82.10
2023-02-14T08:28:14.988Z,85.10
2023-02-14T08:30:43.178Z,81.85
2023-02-14T08:33:11.161Z,81.45
2023-02-14T08:35:39.547Z,78.38
2023-02-14T08:38:09.214Z,76.53
2023-02-14T08:40:37.475Z,77.90
2023-02-14T08:43:05.584Z,75.40
2023-02-14T08:45:33.483Z,73.90
2023-02-14T08:48:03.036Z,74.50
2023-02-14T08:50:30.958Z,74.93
2023-02-14T08:52:58.854Z,76.15
2023-02-14T08:55:28.612Z,76.05
2023-02-14T08:57:57.863Z,74.43
2023-02-14T09:00:25.864Z,75.55
2023-02-14T09:02:54.001Z,72.82
2023-02-14T09:05:23.289Z,74.68
2023-02-14T09:07:51.388Z,74.47
2023-02-14T09:10:19.790Z,72.85
2023-02-14T09:12:49.040Z,70.75
2023-02-14T09:15:17.057Z,73.28
2023-02-14T09:17:45.111Z,74.90
2023-02-14T09:20:14.909Z,74.45
2023-02-14T09:22:43.515Z,74.38
2023-02-14T09:25:11.790Z,68.97
2023-02-14T09:27:40.086Z,69.75
2023-02-14T09:30:10.894Z,71.70
2023-02-14T09:32:38.777Z,71.45
2023-02-14T09:35:07.484Z,71.13
2023-02-14T09:37:52.619Z,73.00
2023-02-14T09:40:21.088Z,70.82
2023-02-14T09:42:54.704Z,70.18
2023-02-14T09:45:27.047Z,67.60
2023-02-14T09:47:58.617Z,69.68
2023-02-14T09:50:29.862Z,71.75
2023-02-14T09:53:00.162Z,63.90
2023-02-14T09:55:32.165Z,68.78
2023-02-14T09:58:08.158Z,71.10
2023-02-14T10:00:39.642Z,69.53
2023-02-14T10:03:19.376Z,69.45
2023-02-14T10:05:50.319Z,70.25
2023-02-14T10:08:30.579Z,70.18
2023-02-14T10:11:03.903Z,66.60
2023-02-14T10:13:36.277Z,73.57
2023-02-14T10:16:10.856Z,73.22
2023-02-14T10:18:42.118Z,71.90
2023-02-14T10:21:15.590Z,74.50
2023-02-14T10:23:47.014Z,71.03
2023-02-14T10:26:19.025Z,72.68
2023-02-14T10:28:49.144Z,72.45
2023-02-14T10:31:22.447Z,69.95
2023-02-14T10:33:57.665Z,69.40
2023-02-14T10:36:40.242Z,64.60
2023-02-14T10:39:18.101Z,69.47
2023-02-14T10:41:50.697Z,66.50
2023-02-14T10:44:31.684Z,69.50
2023-02-14T10:47:06.014Z,69.47
2023-02-14T10:49:41.630Z,69.40
2023-02-14T10:52:17.941Z,65.13
2023-02-14T10:54:47.510Z,66.68
2023-02-14T10:57:17.258Z,65.70
2023-02-14T10:59:51.554Z,64.43
2023-02-14T11:02:24.890Z,62.67
2023-02-14T11:04:53.540Z,60.60
2023-02-14T11:07:23.174Z,65.53
2023-02-14T11:09:51.076Z,67.88
2023-02-14T11:12:39.712Z,65.28
2023-02-14T11:15:22.240Z,69.00
2023-02-14T11:17:51.999Z,67.35
2023-02-14T11:20:26.638Z,67.85
2023-02-14T11:22:54.703Z,63.45
2023-02-14T11:25:24.778Z,65.50
2023-02-14T11:27:57.657Z,66.53
2023-02-14T11:30:29.422Z,68.75
2023-02-14T11:32:58.859Z,69.10
2023-02-14T11:35:34.334Z,67.80
2023-02-14T11:38:04.005Z,63.83
2023-02-14T11:40:33.696Z,65.90
2023-02-14T11:43:18.583Z,67.53
2023-02-14T11:45:48.843Z,66.57
2023-02-14T11:48:36.520Z,66.25
2023-02-14T11:51:09.136Z,67.75
2023-02-14T11:53:44.803Z,65.95
2023-02-14T11:56:13.311Z,68.85
2023-02-14T11:58:46.199Z,69.32
2023-02-14T12:01:24.114Z,69.40
2023-02-14T12:03:54.090Z,67.13
2023-02-14T12:06:25.128Z,67.78
2023-02-14T12:08:53.221Z,71.38
2023-02-14T12:11:22.905Z,73.90
2023-02-14T12:13:54.846Z,68.90
2023-02-14T12:16:27.472Z,74.93
2023-02-14T12:19:01.067Z,71.65
2023-02-14T12:21:44.064Z,67.57
2023-02-14T12:24:20.165Z,69.63
2023-02-14T12:26:51.130Z,69.45
2023-02-14T12:29:22.138Z,70.93
2023-02-14T12:31:50.962Z,67.78
2023-02-14T12:34:22.789Z,70.35
2023-02-14T12:37:08.891Z,69.22
2023-02-14T12:39:39.262Z,69.57
2023-02-14T12:42:17.390Z,69.93
2023-02-14T12:44:53.129Z,71.80
2023-02-14T12:47:23.725Z,68.43
2023-02-14T12:50:11.045Z,71.60
2023-02-14T12:52:49.306Z,68.65
2023-02-14T12:55:30.857Z,72.63
2023-02-14T12:58:02.776Z,70.72
2023-02-14T13:00:37.386Z,69.65
2023-02-14T13:03:28.922Z,70.78
2023-02-14T13:06:04.195Z,71.57
2023-02-14T13:08:46.335Z,67.90
2023-02-14T13:11:22.661Z,69.32
2023-02-14T13:13:55.947Z,67.35
2023-02-14T13:16:28.283Z,70.15
2023-02-14T13:19:01.285Z,70.30
2023-02-14T13:21:34.215Z,70.55
2023-02-14T13:24:16.552Z,71.72
2023-02-14T13:26:46.302Z,72.18
2023-02-14T13:29:16.450Z,72.20
2023-02-14T13:31:44.483Z,73.65
2023-02-14T13:34:21.212Z,69.78
2023-02-14T13:36:50.809Z,70.82
2023-02-14T13:39:26.425Z,71.22
2023-02-14T13:41:54.276Z,68.20
2023-02-14T13:44:43.230Z,66.97
2023-02-14T13:47:17.995Z,66.55
2023-02-14T13:49:51.027Z,70.97
2023-02-14T13:52:41.778Z,68.55
2023-02-14T13:55:14.623Z,69.50
2023-02-14T13:57:42.561Z,71.30
2023-02-14T14:00:46.749Z,72.28
2023-02-14T14:03:16.568Z,68.93
2023-02-14T14:06:03.656Z,70.90
2023-02-14T14:08:44.779Z,70.00
2023-02-14T14:11:35.036Z,69.45
2023-02-14T14:14:04.285Z,66.68
2023-02-14T14:16:35.006Z,72.35
2023-02-14T14:19:04.806Z,70.88
2023-02-14T14:21:33.622Z,70.78
2023-02-14T14:24:16.258Z,69.28
2023-02-14T14:26:46.838Z,67.95
2023-02-14T14:29:19.597Z,69.35
2023-02-14T14:31:48.036Z,69.57
2023-02-14T14:34:18.863Z,69.90
2023-02-14T14:36:46.948Z,72.05
2023-02-14T14:39:26.850Z,73.28
2023-02-14T14:41:54.788Z,72.68
2023-02-14T14:44:22.904Z,74.00
2023-02-14T14:46:50.838Z,76.53
2023-02-14T14:49:18.791Z,74.65
2023-02-14T14:51:46.759Z,73.28
2023-02-14T14:54:18.539Z,79.35
2023-02-14T14:56:51.119Z,77.30
2023-02-14T14:59:26.866Z,77.93
2023-02-14T15:01:55.307Z,74.88
2023-02-14T15:04:27.426Z,77.07
2023-02-14T15:06:56.332Z,78.55
2023-02-14T15:09:32.052Z,77.15
2023-02-14T15:12:18.313Z,78.25
2023-02-14T15:14:50.386Z,78.30
2023-02-14T15:17:21.197Z,75.43
2023-02-14T15:19:51.551Z,76.00
2023-02-14T15:22:21.539Z,76.35
2023-02-14T15:24:51.873Z,71.50
2023-02-14T15:27:21.659Z,75.60
2023-02-14T15:29:57.911Z,75.97
2023-02-14T15:32:26.345Z,74.45
2023-02-14T15:34:55.530Z,75.55
2023-02-14T15:37:24.303Z,76.80
2023-02-14T15:39:55.892Z,77.30
2023-02-14T15:42:26.798Z,78.72
2023-02-14T15:45:17.196Z,77.70
2023-02-14T15:47:47.085Z,75.22
2023-02-14T15:50:16.798Z,78.80
2023-02-14T15:52:45.149Z,79.05
2023-02-14T15:55:17.412Z,77.55
2023-02-14T15:57:48.121Z,76.57
2023-02-14T16:00:19.108Z,82.13
2023-02-14T16:02:49.151Z,79.60
2023-02-14T16:05:20.254Z,82.18
2023-02-14T16:07:58.875Z,82.30
2023-02-14T16:10:28.693Z,81.03
2023-02-14T16:12:59.066Z,80.05
2023-02-14T16:15:28.109Z,81.50
2023-02-14T16:17:56.108Z,81.82
2023-02-14T16:20:29.231Z,79.22
2023-02-14T16:23:15.278Z,78.32
2023-02-14T16:25:44.538Z,76.68
2023-02-14T16:28:12.485Z,75.07
2023-02-14T16:30:41.152Z,76.80
2023-02-14T16:33:14.691Z,78.70
2023-02-14T16:35:42.526Z,77.32
2023-02-14T16:38:16.021Z,78.82
2023-02-14T16:40:47.349Z,72.75
2023-02-14T16:43:15.826Z,71.68
2023-02-14T16:45:43.860Z,72.18
2023-02-14T16:48:11.767Z,73.68
2023-02-14T16:50:40.883Z,73.35
2023-02-14T16:53:14.896Z,73.40
2023-02-14T16:55:42.846Z,71.57
2023-02-14T16:58:12.200Z,76.40
2023-02-14T17:00:40.177Z,72.45
2023-02-14T17:03:08.161Z,72.20
2023-02-14T17:05:36.756Z,71.90
2023-02-14T17:08:05.776Z,73.65
2023-02-14T17:10:34.569Z,70.60
2023-02-14T17:13:04.023Z,72.25
2023-02-14T17:15:33.752Z,68.38
2023-02-14T17:18:04.938Z,74.00
2023-02-14T17:20:32.743Z,69.22
2023-02-14T17:23:00.705Z,72.60
2023-02-14T17:25:28.695Z,74.10
2023-02-14T17:27:57.150Z,72.72
2023-02-14T17:30:25.157Z,72.28
2023-02-14T17:32:54.543Z,75.47
2023-02-14T17:35:22.526Z,72.85
2023-02-14T17:37:50.490Z,70.57
2023-02-14T17:40:18.442Z,74.18
2023-02-14T17:42:46.645Z,76.60
2023-02-14T17:45:15.278Z,75.80
2023-02-14T17:47:45.108Z,74.85
2023-02-14T17:50:14.687Z,70.65
2023-02-14T17:52:42.722Z,72.75
2023-02-14T17:55:10.803Z,73.03
2023-02-14T17:57:40.896Z,72.88
2023-02-14T18:00:11.736Z,73.07
2023-02-14T18:02:42.693Z,71.15
2023-02-14T18:05:11.482Z,72.05
2023-02-14T18:07:40.889Z,74.15
2023-02-14T18:10:09.215Z,70.88
2023-02-14T18:12:37.613Z,75.00
2023-02-14T18:15:05.977Z,75.82
2023-02-14T18:17:33.816Z,80.35
2023-02-14T18:20:01.733Z,74.03
2023-02-14T18:22:29.608Z,76.75
2023-02-14T18:25:02.288Z,75.65
2023-02-14T18:27:30.156Z,74.82
2023-02-14T18:29:58.031Z,74.68
2023-02-14T18:32:26.000Z,78.32
2023-02-14T18:34:54.072Z,78.13
2023-02-14T18:37:22.155Z,79.20
2023-02-14T18:39:50.009Z,79.55
2023-02-14T18:42:19.320Z,78.70
2023-02-14T18:44:47.172Z,78.90
2023-02-14T18:47:15.039Z,77.47
2023-02-14T18:49:42.945Z,75.80
2023-02-14T18:52:10.798Z,75.32
2023-02-14T18:54:38.804Z,76.15
2023-02-14T18:57:06.668Z,77.80
2023-02-14T18:59:35.895Z,77.00
2023-02-14T19:02:03.764Z,77.10
2023-02-14T19:04:32.172Z,74.50
2023-02-14T19:07:00.024Z,72.47
2023-02-14T19:09:29.451Z,74.95
2023-02-14T19:11:59.964Z,74.30
2023-02-14T19:14:27.898Z,74.45
2023-02-14T19:16:57.140Z,73.28
2023-02-14T19:19:25.768Z,70.40
2023-02-14T19:21:53.725Z,72.55
2023-02-14T19:24:24.177Z,73.50
2023-02-14T19:26:52.063Z,72.80
2023-02-14T19:29:21.813Z,72.85
2023-02-14T19:31:53.048Z,73.88
2023-02-14T19:34:25.307Z,75.05
2023-02-14T19:36:54.758Z,75.95
2023-02-14T19:39:24.389Z,73.32
2023-02-14T19:41:52.477Z,76.80
2023-02-14T19:44:20.326Z,72.30
2023-02-14T19:46:49.011Z,76.85
2023-02-14T19:49:18.971Z,75.32
2023-02-14T19:51:49.197Z,76.05
2023-02-14T19:54:17.120Z,77.97
2023-02-14T19:56:46.560Z,77.43
2023-02-14T19:59:19.650Z,75.60
2023-02-14T20:01:49.252Z,76.63
2023-02-14T20:04:18.823Z,79.40
2023-02-14T20:06:48.421Z,76.20
2023-02-14T20:09:16.845Z,75.20
2023-02-14T20:11:50.068Z,75.10
2023-02-14T20:14:18.927Z,75.40
2023-02-14T20:16:47.850Z,76.53
2023-02-14T20:19:18.315Z,77.20
2023-02-14T20:21:48.942Z,77.60
2023-02-14T20:24:18.375Z,76.40
2023-02-14T20:26:47.363Z,78.40
2023-02-14T20:29:16.137Z,79.25
2023-02-14T20:31:46.487Z,76.97
2023-02-14T20:34:14.843Z,78.15
2023-02-14T20:36:43.532Z,78.97
2023-02-14T20:39:14.284Z,75.97
2023-02-14T20:41:43.674Z,77.07
2023-02-14T20:44:12.442Z,77.35
2023-02-14T20:46:41.191Z,72.13
2023-02-14T20:49:11.895Z,74.65
2023-02-14T20:51:40.695Z,77.70
2023-02-14T20:54:08.765Z,76.40
2023-02-14T20:56:40.098Z,75.70
2023-02-14T20:59:08.563Z,77.10
2023-02-14T21:01:36.909Z,75.90
2023-02-14T21:04:05.202Z,76.15
2023-02-14T21:06:35.640Z,76.20
2023-02-14T21:09:03.929Z,78.88
2023-02-14T21:11:31.812Z,70.28
2023-02-14T21:14:02.251Z,76.60
2023-02-14T21:16:30.696Z,72.68
2023-02-14T21:19:00.137Z,76.90
2023-02-14T21:21:32.364Z,77.60
2023-02-14T21:24:01.425Z,75.65
2023-02-14T21:26:29.943Z,77.70
2023-02-14T21:28:58.075Z,82.35
2023-02-14T21:31:27.506Z,79.70
2023-02-14T21:33:57.751Z,79.95
2023-02-14T21:36:26.780Z,82.20
2023-02-14T21:38:57.961Z,81.50
2023-02-14T21:41:27.663Z,76.15
2023-02-14T21:43:56.326Z,79.85
2023-02-14T21:46:31.142Z,80.45
2023-02-14T21:49:19.114Z,80.57
2023-02-14T21:51:47.550Z,79.53
2023-02-14T21:54:15.874Z,80.05
2023-02-14T21:56:44.131Z,80.93
2023-02-14T21:59:12.196Z,78.53
2023-02-14T22:01:41.399Z,79.78
2023-02-14T22:04:12.849Z,81.35
2023-02-14T22:06:42.155Z,79.72
2023-02-14T22:09:12.252Z,77.30
2023-02-14T22:11:40.535Z,78.28
2023-02-14T22:14:08.533Z,80.18
2023-02-14T22:16:36.852Z,79.38
2023-02-14T22:19:05.267Z,80.60
2023-02-14T22:21:34.669Z,75.60
2023-02-14T22:24:02.826Z,81.32
2023-02-14T22:26:33.679Z,78.30
2023-02-14T22:29:03.152Z,79.95
2023-02-14T22:31:34.319Z,80.18
2023-02-14T22:34:02.356Z,78.22
2023-02-14T22:36:30.283Z,78.90
2023-02-14T22:38:59.512Z,75.75
2023-02-14T22:41:27.462Z,78.18
2023-02-14T22:43:55.453Z,78.50
2023-02-14T22:46:25.070Z,81.60
2023-02-14T22:48:53.604Z,78.25
2023-02-14T22:51:23.152Z,78.95
2023-02-14T22:53:52.199Z,80.80
2023-02-14T22:56:22.967Z,82.05
2023-02-14T22:58:54.584Z,80.07
2023-02-14T23:01:23.567Z,78.82
2023-02-14T23:03:54.775Z,79.78
2023-02-14T23:06:23.291Z,73.97
2023-02-14T23:08:51.347Z,79.80
2023-02-14T23:11:23.334Z,82.05
2023-02-14T23:14:10.652Z,81.63
2023-02-14T23:16:56.167Z,78.40
2023-02-14T23:19:43.123Z,79.22
2023-02-14T23:22:13.059Z,77.30
2023-02-14T23:24:41.294Z,74.82
2023-02-14T23:27:10.615Z,80.45
2023-02-14T23:29:38.639Z,84.10
2023-02-14T23:32:07.677Z,85.53
2023-02-14T23:34:37.523Z,80.60
2023-02-14T23:37:05.782Z,84.07
2023-02-14T23:39:35.778Z,80.50
2023-02-14T23:42:03.768Z,77.80
2023-02-14T23:44:33.668Z,80.35
2023-02-14T23:47:03.117Z,79.90
2023-02-14T23:49:31.944Z,81.75
2023-02-14T23:51:59.850Z,80.85
2023-02-14T23:54:27.767Z,79.78
2023-02-14T23:56:57.424Z,80.05
2023-02-14T23:59:25.821Z,73.65
